Time;durP1;ratioP1;P1;durP2;ratioP2;P2;SDS_P1;SDS_P2;PMS_P1;PMS_P2;Temp;Humidity;BMP_temperature;BMP_pressure;BME280_temperature;BME280_humidity;BME280_pressure;Samples;Min_cycle;Max_cycle;Signal;HPM_P1;HPM_P2
2023/07/18 00:00:35;;;;;;;3.60;2.17;;;18.60;57.20;;;;;;4910095;29;20060;-45
2023/07/18 00:03:05;;;;;;;4.28;2.30;;;18.60;57.60;;;;;;4896366;29;20163;-44
2023/07/18 00:05:33;;;;;;;2.75;2.13;;;18.60;57.40;;;;;;4896843;29;20127;-47
2023/07/18 00:08:00;;;;;;;2.80;2.42;;;18.60;57.50;;;;;;4912641;29;20089;-46
2023/07/18 00:10:27;;;;;;;2.42;2.22;;;18.60;57.80;;;;;;4914519;29;20052;-46
2023/07/18 00:12:54;;;;;;;4.28;2.47;;;18.60;57.90;;;;;;4909347;29;20078;-48
2023/07/18 00:15:22;;;;;;;3.72;2.00;;;18.60;58.10;;;;;;4914076;29;20120;-49
2023/07/18 00:17:49;;;;;;;3.35;2.90;;;18.50;58.20;;;;;;4913569;29;20063;-44
2023/07/18 00:20:18;;;;;;;3.92;2.90;;;18.60;58.40;;;;;;4912165;29;20126;-47
2023/07/18 00:22:49;;;;;;;4.45;2.50;;;18.60;58.70;;;;;;4912530;29;20082;-45
2023/07/18 00:25:20;;;;;;;4.18;2.20;;;18.60;58.90;;;;;;4911899;29;20131;-44
2023/07/18 00:27:51;;;;;;;3.50;2.58;;;18.60;59.20;;;;;;4913342;29;20127;-47
2023/07/18 00:30:18;;;;;;;3.60;2.73;;;18.60;59.20;;;;;;4895759;29;20052;-47
2023/07/18 00:32:52;;;;;;;9.05;4.75;;;18.60;59.20;;;;;;4912232;29;20550;-46
2023/07/18 00:35:22;;;;;;;3.83;2.88;;;18.60;59.70;;;;;;4896855;29;20043;-44
2023/07/18 00:37:52;;;;;;;6.28;3.35;;;18.60;59.60;;;;;;4912944;29;20502;-48
2023/07/18 00:40:21;;;;;;;2.92;2.35;;;18.60;59.70;;;;;;4896342;29;20525;-48
2023/07/18 00:42:48;;;;;;;3.22;2.70;;;18.70;59.90;;;;;;4913103;29;20063;-47
2023/07/18 00:45:21;;;;;;;4.85;3.67;;;18.70;59.80;;;;;;4896361;29;20083;-44
2023/07/18 00:47:51;;;;;;;2.97;2.60;;;18.70;59.80;;;;;;4911188;29;20122;-48
2023/07/18 00:50:21;;;;;;;3.05;2.17;;;18.70;60.00;;;;;;4912952;29;20048;-46
2023/07/18 00:52:52;;;;;;;5.15;2.63;;;18.80;59.80;;;;;;4912489;29;20048;-49
2023/07/18 00:55:21;;;;;;;3.22;2.55;;;18.80;59.70;;;;;;4894514;29;20070;-47
2023/07/18 00:57:48;;;;;;;2.33;2.10;;;18.80;59.40;;;;;;4895232;29;20044;-46
2023/07/18 01:00:16;;;;;;;3.88;2.63;;;18.80;59.10;;;;;;4896342;29;20044;-48
2023/07/18 01:02:47;;;;;;;5.75;2.78;;;18.80;58.80;;;;;;4894926;29;20123;-45
2023/07/18 01:05:21;;;;;;;3.88;2.58;;;18.80;58.50;;;;;;4892815;29;20052;-46
2023/07/18 01:07:48;;;;;;;4.22;2.28;;;18.70;58.00;;;;;;4893641;29;20058;-47
2023/07/18 01:10:23;;;;;;;3.88;2.47;;;18.70;57.90;;;;;;4893509;29;20049;-47
2023/07/18 01:13:00;;;;;;;4.05;2.80;;;18.60;57.70;;;;;;4895582;29;20471;-47
2023/07/18 01:15:30;;;;;;;3.97;1.90;;;18.60;58.10;;;;;;4912843;29;20044;-47
2023/07/18 01:18:09;;;;;;;2.97;2.30;;;18.50;57.80;;;;;;4910282;29;20048;-45
2023/07/18 01:20:37;;;;;;;3.33;2.53;;;18.50;57.80;;;;;;4894511;29;20107;-45
2023/07/18 01:23:06;;;;;;;8.23;2.70;;;18.40;57.80;;;;;;4895920;29;20047;-47
2023/07/18 01:25:34;;;;;;;3.25;2.60;;;18.30;57.90;;;;;;4909485;29;20046;-44
2023/07/18 01:28:06;;;;;;;3.00;2.15;;;18.20;58.00;;;;;;4877640;29;20048;-47
2023/07/18 01:30:37;;;;;;;5.00;2.20;;;18.20;58.00;;;;;;4907754;29;20052;-44
2023/07/18 01:33:04;;;;;;;2.83;2.10;;;18.10;57.80;;;;;;4912216;29;20036;-45
2023/07/18 01:35:31;;;;;;;4.97;2.35;;;18.10;57.90;;;;;;4913097;29;20043;-48
2023/07/18 01:38:00;;;;;;;3.38;2.15;;;18.00;57.80;;;;;;4912237;29;20071;-44
2023/07/18 01:40:27;;;;;;;2.88;1.92;;;18.00;57.90;;;;;;4891451;29;20060;-48
2023/07/18 01:42:58;;;;;;;5.22;2.15;;;17.90;57.70;;;;;;4890629;29;20534;-43
2023/07/18 01:45:28;;;;;;;3.50;2.45;;;17.80;58.30;;;;;;4911898;29;20044;-45
2023/07/18 01:47:56;;;;;;;4.65;2.85;;;17.80;57.70;;;;;;4911206;29;20040;-45
2023/07/18 01:50:23;;;;;;;3.28;2.28;;;17.70;57.60;;;;;;4892504;29;20092;-44
2023/07/18 01:52:53;;;;;;;3.08;2.30;;;17.70;57.70;;;;;;4894927;29;20058;-46
2023/07/18 01:55:22;;;;;;;3.45;2.22;;;17.70;57.90;;;;;;4909682;29;20116;-46
2023/07/18 01:57:54;;;;;;;2.63;2.20;;;17.60;57.80;;;;;;4894486;29;20420;-48
2023/07/18 02:00:21;;;;;;;3.75;2.70;;;17.60;58.10;;;;;;4891800;29;20055;-47
2023/07/18 02:02:51;;;;;;;2.70;2.10;;;17.50;58.10;;;;;;4911817;29;20056;-45
2023/07/18 02:05:23;;;;;;;2.97;2.30;;;17.50;58.30;;;;;;4891696;29;20048;-46
2023/07/18 02:07:50;;;;;;;4.97;3.10;;;17.50;58.80;;;;;;4893880;29;20052;-45
2023/07/18 02:10:20;;;;;;;4.28;2.45;;;17.40;59.10;;;;;;4895764;29;20089;-48
2023/07/18 02:12:52;;;;;;;3.67;2.67;;;17.40;59.20;;;;;;4911672;29;20060;-44
2023/07/18 02:15:23;;;;;;;4.97;2.50;;;17.40;59.70;;;;;;4894856;29;20562;-47
2023/07/18 02:17:59;;;;;;;4.50;2.35;;;17.40;59.40;;;;;;4912171;29;20036;-48
2023/07/18 02:20:28;;;;;;;3.97;2.35;;;17.40;59.40;;;;;;4895546;29;20135;-46
2023/07/18 02:22:56;;;;;;;3.67;2.53;;;17.40;59.10;;;;;;4909879;29;20131;-45
2023/07/18 02:25:25;;;;;;;4.72;2.30;;;17.40;59.00;;;;;;4893885;29;20459;-45
2023/07/18 02:27:52;;;;;;;4.95;2.80;;;17.30;58.70;;;;;;4911893;29;20044;-44
2023/07/18 02:30:21;;;;;;;10.48;3.05;;;17.30;58.60;;;;;;4894230;29;20059;-46
2023/07/18 02:32:47;;;;;;;8.63;2.25;;;17.30;58.70;;;;;;4913606;29;20048;-48
2023/07/18 02:35:17;;;;;;;5.00;2.42;;;17.20;58.60;;;;;;4898190;29;20613;-48
2023/07/18 02:37:46;;;;;;;4.43;2.63;;;17.20;58.60;;;;;;4914939;29;20092;-48
2023/07/18 02:40:14;;;;;;;5.30;2.88;;;17.10;58.50;;;;;;4915635;29;20080;-45
2023/07/18 02:42:41;;;;;;;4.05;2.17;;;17.10;58.30;;;;;;4914907;29;20147;-46
2023/07/18 02:45:08;;;;;;;2.67;2.30;;;17.10;58.40;;;;;;4915337;29;20051;-45
2023/07/18 02:47:38;;;;;;;4.72;2.35;;;17.00;58.20;;;;;;4915145;29;20054;-46
2023/07/18 02:50:13;;;;;;;3.55;2.40;;;17.00;58.30;;;;;;4913595;29;20068;-46
2023/07/18 02:52:39;;;;;;;5.03;2.70;;;16.90;58.10;;;;;;4911481;29;20048;-45
2023/07/18 02:55:11;;;;;;;3.15;2.25;;;16.90;58.20;;;;;;4896943;29;20051;-47
2023/07/18 02:57:37;;;;;;;3.88;2.28;;;16.80;58.20;;;;;;4914455;29;20056;-46
2023/07/18 03:00:10;;;;;;;2.40;1.80;;;16.80;58.20;;;;;;4915305;29;20054;-46
2023/07/18 03:02:37;;;;;;;6.57;2.10;;;16.70;58.20;;;;;;4895796;29;20056;-45
2023/07/18 03:05:07;;;;;;;3.08;1.70;;;16.70;58.30;;;;;;4913577;29;20162;-45
2023/07/18 03:07:33;;;;;;;5.00;2.22;;;16.60;58.20;;;;;;4913977;29;20099;-47
2023/07/18 03:10:02;;;;;;;3.03;2.20;;;16.60;58.20;;;;;;4897776;29;20064;-46
2023/07/18 03:12:32;;;;;;;3.90;2.25;;;16.60;58.30;;;;;;4906643;29;20545;-44
2023/07/18 03:15:07;;;;;;;3.33;2.30;;;16.50;58.20;;;;;;4910560;29;20055;-45
2023/07/18 03:17:34;;;;;;;2.30;1.77;;;16.50;58.30;;;;;;4890214;29;20048;-45
2023/07/18 03:20:16;;;;;;;3.30;1.60;;;16.40;58.20;;;;;;4915125;29;20044;-48
2023/07/18 03:22:48;;;;;;;3.42;1.67;;;16.40;58.40;;;;;;4908486;29;20058;-46
2023/07/18 03:25:17;;;;;;;3.97;2.17;;;16.40;58.20;;;;;;4894373;29;20055;-47
2023/07/18 03:27:49;;;;;;;2.58;1.90;;;16.30;58.30;;;;;;4914907;29;20048;-45
2023/07/18 03:30:16;;;;;;;4.53;2.15;;;16.30;58.30;;;;;;4892195;29;20507;-48
2023/07/18 03:32:43;;;;;;;3.80;2.03;;;16.20;58.40;;;;;;4892679;29;20048;-46
2023/07/18 03:35:11;;;;;;;4.68;1.83;;;16.20;58.40;;;;;;4913231;29;20132;-46
2023/07/18 03:37:38;;;;;;;3.72;1.95;;;16.20;58.60;;;;;;4914750;29;20522;-47
2023/07/18 03:40:15;;;;;;;3.85;1.98;;;16.10;58.50;;;;;;4913225;29;20091;-48
2023/07/18 03:42:43;;;;;;;3.85;2.30;;;16.10;58.60;;;;;;4911345;29;20433;-45
2023/07/18 03:45:14;;;;;;;4.57;2.20;;;16.10;58.60;;;;;;4912536;29;20048;-44
2023/07/18 03:47:42;;;;;;;2.08;1.85;;;16.00;58.60;;;;;;4914169;29;20060;-45
2023/07/18 03:50:14;;;;;;;2.35;1.95;;;16.00;58.60;;;;;;4898684;29;20046;-43
2023/07/18 03:52:43;;;;;;;3.65;1.88;;;16.00;58.70;;;;;;4914396;29;20153;-46
2023/07/18 03:55:10;;;;;;;4.30;1.92;;;15.90;58.70;;;;;;4912037;29;20451;-44
2023/07/18 03:57:40;;;;;;;4.40;2.10;;;16.00;59.00;;;;;;4911738;29;20499;-45
2023/07/18 04:00:17;;;;;;;2.88;2.38;;;16.00;59.00;;;;;;4912094;29;20399;-44
2023/07/18 04:02:54;;;;;;;5.55;2.17;;;15.90;59.00;;;;;;4914297;29;20063;-46
2023/07/18 04:05:21;;;;;;;3.90;1.50;;;15.90;59.10;;;;;;4914106;29;20036;-45
2023/07/18 04:07:51;;;;;;;4.60;1.83;;;15.90;58.90;;;;;;4913983;29;20483;-45
2023/07/18 04:10:18;;;;;;;3.63;2.63;;;15.80;59.10;;;;;;4914761;29;20522;-44
2023/07/18 04:12:44;;;;;;;3.13;2.00;;;15.90;59.20;;;;;;4914023;29;20123;-44
2023/07/18 04:15:12;;;;;;;3.30;2.30;;;15.80;59.30;;;;;;4914174;29;20115;-44
2023/07/18 04:17:44;;;;;;;5.03;2.08;;;15.90;59.30;;;;;;4913810;29;20088;-45
2023/07/18 04:20:19;;;;;;;2.92;1.80;;;15.80;59.20;;;;;;4914545;29;20036;-44
2023/07/18 04:22:52;;;;;;;2.30;1.48;;;15.80;59.40;;;;;;4914136;29;20059;-46
2023/07/18 04:25:21;;;;;;;2.22;2.00;;;15.80;59.50;;;;;;4894244;29;20515;-52
2023/07/18 04:27:51;;;;;;;3.58;1.92;;;15.80;59.60;;;;;;4913716;29;20265;-48
2023/07/18 04:30:18;;;;;;;3.10;1.88;;;15.80;59.70;;;;;;4914433;29;20468;-45
2023/07/18 04:32:46;;;;;;;3.08;2.13;;;15.80;59.80;;;;;;4912075;29;20040;-45
2023/07/18 04:35:18;;;;;;;1.92;1.58;;;15.80;60.00;;;;;;4911065;29;20710;-47
2023/07/18 04:37:46;;;;;;;2.08;1.88;;;15.80;60.00;;;;;;4912119;29;20080;-45
2023/07/18 04:40:15;;;;;;;2.15;1.95;;;15.80;60.00;;;;;;4914522;29;20123;-44
2023/07/18 04:42:42;;;;;;;4.65;1.85;;;15.80;60.30;;;;;;4911702;29;20131;-45
2023/07/18 04:45:13;;;;;;;2.33;1.77;;;15.80;60.50;;;;;;4913206;29;20052;-46
2023/07/18 04:47:42;;;;;;;2.17;1.90;;;15.80;60.70;;;;;;4913284;29;20056;-45
2023/07/18 04:50:12;;;;;;;2.17;1.80;;;15.90;60.70;;;;;;4914010;29;20051;-47
2023/07/18 04:52:38;;;;;;;3.90;2.15;;;15.90;60.80;;;;;;4908257;29;20132;-46
2023/07/18 04:55:16;;;;;;;4.55;1.92;;;15.90;60.80;;;;;;4908245;29;20095;-45
2023/07/18 04:57:43;;;;;;;2.20;2.00;;;16.00;61.00;;;;;;4913244;29;20094;-45
2023/07/18 05:00:12;;;;;;;2.72;1.73;;;16.00;61.10;;;;;;4913833;29;20103;-45
2023/07/18 05:02:42;;;;;;;;;;;16.00;61.80;;;;;;4911946;29;20102;-44
2023/07/18 05:05:11;;;;;;;1.92;1.73;;;16.10;61.20;;;;;;4910824;29;19955;-45
2023/07/18 05:07:38;;;;;;;2.63;2.10;;;16.10;60.90;;;;;;4911577;29;20519;-45
2023/07/18 05:10:05;;;;;;;2.90;1.65;;;16.10;61.20;;;;;;4908490;29;20050;-48
2023/07/18 05:12:40;;;;;;;3.00;2.22;;;16.10;62.10;;;;;;4910914;29;20096;-49
2023/07/18 05:15:07;;;;;;;2.83;2.13;;;16.20;61.80;;;;;;4912541;29;20040;-44
2023/07/18 05:17:36;;;;;;;3.28;1.95;;;16.20;61.90;;;;;;4910712;29;20151;-48
2023/07/18 05:20:04;;;;;;;5.43;2.42;;;16.20;62.10;;;;;;4911479;29;20063;-45
2023/07/18 05:22:34;;;;;;;2.70;1.92;;;16.30;62.30;;;;;;4907773;29;20166;-45
2023/07/18 05:25:03;;;;;;;4.78;1.83;;;16.30;62.40;;;;;;4901854;29;20460;-45
2023/07/18 05:27:32;;;;;;;3.55;2.38;;;16.40;62.60;;;;;;4910256;29;20060;-44
2023/07/18 05:29:58;;;;;;;4.13;2.00;;;16.40;62.70;;;;;;4911730;29;20138;-44
2023/07/18 05:32:27;;;;;;;2.42;2.15;;;16.50;62.90;;;;;;4911821;29;20533;-45
2023/07/18 05:34:54;;;;;;;4.38;2.30;;;16.50;63.00;;;;;;4906304;29;20048;-44
2023/07/18 05:37:21;;;;;;;2.35;2.00;;;16.60;63.20;;;;;;4911688;29;20040;-46
2023/07/18 05:39:48;;;;;;;3.30;2.25;;;16.70;63.40;;;;;;4911868;29;20403;-47
2023/07/18 05:42:15;;;;;;;5.93;2.65;;;16.70;63.60;;;;;;4912572;29;20048;-45
2023/07/18 05:44:48;;;;;;;7.32;2.13;;;16.80;63.80;;;;;;4912100;29;20637;-48
2023/07/18 05:47:16;;;;;;;3.55;1.98;;;16.90;64.20;;;;;;4912140;29;20076;-45
2023/07/18 05:49:45;;;;;;;3.53;2.20;;;16.90;63.80;;;;;;4911992;29;20054;-45
2023/07/18 05:52:12;;;;;;;3.22;1.75;;;17.00;63.70;;;;;;4912341;29;20044;-45
2023/07/18 05:54:38;;;;;;;3.70;1.70;;;17.00;63.90;;;;;;4911906;29;20151;-45
2023/07/18 05:57:06;;;;;;;3.42;1.90;;;17.10;64.10;;;;;;4912072;29;20123;-47
2023/07/18 05:59:43;;;;;;;3.65;1.90;;;17.20;64.20;;;;;;4911644;29;20091;-44
2023/07/18 06:02:13;;;;;;;4.45;2.00;;;17.30;64.30;;;;;;4907975;29;20064;-46
2023/07/18 06:04:42;;;;;;;4.43;2.17;;;17.40;64.30;;;;;;4895663;29;20055;-44
2023/07/18 06:07:12;;;;;;;2.63;1.73;;;17.40;64.00;;;;;;4913603;29;20056;-44
2023/07/18 06:09:53;;;;;;;3.05;1.88;;;17.50;63.70;;;;;;4915318;29;20493;-48
2023/07/18 06:12:20;;;;;;;1.98;1.50;;;17.60;63.50;;;;;;4936308;23;20090;-44
2023/07/18 06:14:49;;;;;;;2.03;1.33;;;17.70;63.30;;;;;;4930894;29;20062;-44
2023/07/18 06:17:16;;;;;;;3.25;1.80;;;17.70;62.50;;;;;;4935437;29;20099;-44
2023/07/18 06:19:46;;;;;;;2.03;1.42;;;17.80;63.00;;;;;;4936117;29;20409;-44
2023/07/18 06:22:15;;;;;;;3.40;2.05;;;17.90;62.70;;;;;;4929658;29;20054;-45
2023/07/18 06:24:42;;;;;;;4.20;2.22;;;18.00;63.00;;;;;;4916373;29;20128;-48
2023/07/18 06:27:11;;;;;;;3.55;2.10;;;18.10;63.20;;;;;;4916165;29;20044;-44
2023/07/18 06:29:38;;;;;;;3.15;1.52;;;18.10;62.30;;;;;;4917078;29;20036;-48
2023/07/18 06:32:08;;;;;;;4.00;1.55;;;18.20;62.60;;;;;;4915962;29;20119;-47
2023/07/18 06:34:40;;;;;;;3.30;1.65;;;18.30;61.30;;;;;;4915707;29;20044;-44
2023/07/18 06:37:12;;;;;;;3.50;1.92;;;18.40;60.90;;;;;;4916061;29;20054;-45
2023/07/18 06:39:39;;;;;;;3.55;1.85;;;18.40;61.20;;;;;;4915524;29;20044;-44
2023/07/18 06:42:11;;;;;;;4.68;1.60;;;18.50;60.90;;;;;;4915848;29;20095;-45
2023/07/18 06:44:44;;;;;;;4.15;1.65;;;18.60;60.80;;;;;;4898856;29;20146;-47
2023/07/18 06:47:12;;;;;;;2.15;1.35;;;18.70;60.20;;;;;;4898587;29;20054;-49
2023/07/18 06:49:39;;;;;;;3.10;1.48;;;18.70;59.70;;;;;;4916313;29;20055;-44
2023/07/18 06:52:10;;;;;;;2.95;1.40;;;18.80;59.80;;;;;;4915930;29;20434;-44
2023/07/18 06:54:39;;;;;;;2.60;1.38;;;18.90;59.30;;;;;;4914078;29;20384;-44
2023/07/18 06:57:06;;;;;;;2.38;1.25;;;18.90;60.20;;;;;;4914469;29;20097;-49
2023/07/18 06:59:36;;;;;;;2.17;1.25;;;19.00;59.80;;;;;;4914992;29;20502;-44
2023/07/18 07:02:03;;;;;;;1.27;0.95;;;19.00;59.60;;;;;;4915426;29;20506;-45
2023/07/18 07:04:31;;;;;;;3.97;1.85;;;19.10;59.40;;;;;;4909726;29;20054;-46
2023/07/18 07:07:01;;;;;;;2.38;0.90;;;19.20;59.50;;;;;;4915435;29;20051;-47
2023/07/18 07:09:29;;;;;;;10.23;2.75;;;19.20;58.90;;;;;;4916040;29;20123;-45
2023/07/18 07:11:55;;;;;;;3.60;1.60;;;19.20;58.90;;;;;;4912082;29;20099;-49
2023/07/18 07:14:30;;;;;;;2.90;1.20;;;19.30;58.90;;;;;;4909916;29;20052;-46
2023/07/18 07:16:59;;;;;;;2.38;0.95;;;19.40;58.30;;;;;;4915298;29;20048;-45
2023/07/18 07:19:28;;;;;;;2.42;1.00;;;19.50;58.20;;;;;;4915948;29;20131;-47
2023/07/18 07:21:55;;;;;;;1.58;0.98;;;19.50;57.70;;;;;;4914903;29;20107;-44
2023/07/18 07:24:24;;;;;;;1.40;1.08;;;19.60;57.60;;;;;;4915801;29;20541;-45
2023/07/18 07:26:51;;;;;;;2.45;1.20;;;19.70;57.90;;;;;;4914954;29;20123;-45
2023/07/18 07:29:18;;;;;;;2.50;1.10;;;19.80;57.50;;;;;;4916398;29;20139;-44
2023/07/18 07:31:50;;;;;;;2.92;1.08;;;19.80;57.10;;;;;;4914845;29;20055;-47
2023/07/18 07:34:18;;;;;;;2.88;1.23;;;19.90;57.30;;;;;;4913642;29;20044;-45
2023/07/18 07:36:44;;;;;;;1.95;1.00;;;19.90;57.60;;;;;;4914848;29;20052;-44
2023/07/18 07:39:12;;;;;;;2.53;1.38;;;20.00;57.40;;;;;;4914312;29;20043;-45
2023/07/18 07:41:40;;;;;;;2.08;1.30;;;20.00;57.10;;;;;;4914780;29;20040;-48
2023/07/18 07:44:17;;;;;;;6.07;1.30;;;20.10;57.10;;;;;;4915106;29;20525;-47
2023/07/18 07:46:43;;;;;;;4.50;1.05;;;20.20;56.80;;;;;;4914698;29;20477;-45
2023/07/18 07:49:17;;;;;;;0.85;0.75;;;20.20;56.60;;;;;;4915417;29;20067;-47
2023/07/18 07:51:44;;;;;;;3.05;1.08;;;20.30;56.60;;;;;;4914321;29;20538;-49
2023/07/18 07:54:12;;;;;;;1.30;1.10;;;20.30;55.90;;;;;;4913434;29;20035;-44
2023/07/18 07:56:39;;;;;;;3.05;1.15;;;20.40;55.90;;;;;;4913633;29;20447;-49
2023/07/18 07:59:05;;;;;;;3.88;0.80;;;20.50;56.60;;;;;;4915650;29;20036;-48
2023/07/18 08:01:40;;;;;;;3.28;0.88;;;20.50;55.20;;;;;;4914419;29;20105;-44
2023/07/18 08:04:10;;;;;;;3.63;1.03;;;20.60;55.30;;;;;;4914246;29;20529;-44
2023/07/18 08:06:45;;;;;;;2.10;0.88;;;20.60;55.30;;;;;;4898453;29;20058;-46
2023/07/18 08:09:18;;;;;;;6.95;1.40;;;20.70;54.90;;;;;;4915332;29;20068;-45
2023/07/18 08:11:50;;;;;;;4.03;0.90;;;20.80;55.00;;;;;;4914149;29;20477;-45
2023/07/18 08:14:20;;;;;;;1.90;1.02;;;20.80;55.00;;;;;;4906664;29;20136;-45
2023/07/18 08:16:49;;;;;;;1.02;0.70;;;20.90;54.70;;;;;;4913966;29;20052;-47
2023/07/18 08:19:21;;;;;;;1.50;1.02;;;21.00;54.30;;;;;;4915179;29;20051;-48
2023/07/18 08:21:47;;;;;;;1.53;1.00;;;21.00;54.10;;;;;;4914321;29;20096;-47
2023/07/18 08:24:18;;;;;;;3.33;1.20;;;21.10;54.10;;;;;;4909044;29;20051;-45
2023/07/18 08:26:47;;;;;;;1.23;0.95;;;21.10;53.60;;;;;;4906822;29;20052;-48
2023/07/18 08:29:14;;;;;;;2.17;1.08;;;21.20;53.70;;;;;;4913001;29;20048;-48
2023/07/18 08:31:41;;;;;;;1.73;1.02;;;21.40;53.90;;;;;;4914314;29;20056;-49
2023/07/18 08:34:08;;;;;;;2.35;0.98;;;21.40;53.60;;;;;;4913025;29;20048;-49
2023/07/18 08:36:37;;;;;;;1.77;1.00;;;21.40;53.40;;;;;;4909159;29;20467;-48
2023/07/18 08:39:04;;;;;;;3.78;1.63;;;21.50;53.10;;;;;;4914213;29;20044;-48
2023/07/18 08:41:39;;;;;;;1.90;0.70;;;21.50;52.30;;;;;;4907836;29;20092;-48
2023/07/18 08:44:12;;;;;;;1.27;0.90;;;21.60;52.10;;;;;;4912635;29;20076;-45
2023/07/18 08:46:42;;;;;;;1.75;0.85;;;21.70;51.70;;;;;;4912480;29;20056;-47
2023/07/18 08:49:17;;;;;;;2.58;1.10;;;21.70;51.70;;;;;;4914377;29;20418;-47
2023/07/18 08:51:48;;;;;;;2.20;1.40;;;21.80;51.70;;;;;;4913133;29;20048;-45
2023/07/18 08:54:19;;;;;;;4.97;1.38;;;21.90;51.80;;;;;;4913218;29;20071;-48
2023/07/18 08:56:49;;;;;;;3.22;1.67;;;22.00;51.70;;;;;;4909033;29;20044;-49
2023/07/18 08:59:18;;;;;;;2.78;1.50;;;22.10;51.60;;;;;;4911767;29;20044;-46
2023/07/18 09:01:46;;;;;;;1.63;1.00;;;22.20;51.20;;;;;;4910805;29;20048;-47
2023/07/18 09:04:15;;;;;;;1.80;1.17;;;22.40;51.00;;;;;;4909565;29;20107;-48
2023/07/18 09:06:49;;;;;;;3.28;1.20;;;22.60;50.60;;;;;;4911461;29;20051;-49
2023/07/18 09:09:21;;;;;;;2.05;1.10;;;22.70;49.70;;;;;;4912759;29;20526;-47
2023/07/18 09:11:58;;;;;;;1.02;0.90;;;22.90;50.40;;;;;;4911224;29;20044;-47
2023/07/18 09:14:34;;;;;;;5.53;1.27;;;23.10;49.60;;;;;;4906800;29;20088;-47
2023/07/18 09:17:04;;;;;;;2.80;0.95;;;23.30;50.00;;;;;;4912772;29;20055;-47
2023/07/18 09:19:48;;;;;;;2.17;0.82;;;23.40;48.90;;;;;;4907234;29;20044;-48
2023/07/18 09:22:17;;;;;;;2.90;0.90;;;23.50;48.50;;;;;;4907313;29;20052;-49
2023/07/18 09:24:44;;;;;;;3.88;1.30;;;23.70;48.80;;;;;;4909820;29;20076;-49
2023/07/18 09:27:18;;;;;;;1.80;1.08;;;23.70;48.10;;;;;;4911014;29;20160;-47
2023/07/18 09:29:50;;;;;;;2.08;1.27;;;23.80;48.40;;;;;;4913786;29;20076;-48
2023/07/18 09:32:20;;;;;;;1.95;1.00;;;24.00;47.70;;;;;;4913183;29;20108;-46
2023/07/18 09:34:55;;;;;;;1.45;0.73;;;24.10;47.70;;;;;;4912290;29;20075;-48
2023/07/18 09:37:28;;;;;;;1.65;0.95;;;24.20;47.10;;;;;;4909594;29;20133;-49
2023/07/18 09:40:00;;;;;;;3.83;1.00;;;24.40;47.40;;;;;;4913909;29;20116;-49
2023/07/18 09:42:32;;;;;;;1.88;1.40;;;24.50;46.80;;;;;;4910810;29;20043;-49
2023/07/18 09:45:00;;;;;;;2.92;1.42;;;24.70;46.90;;;;;;4909523;29;20055;-47
2023/07/18 09:47:39;;;;;;;4.20;1.42;;;24.80;46.20;;;;;;4911664;29;20048;-47
2023/07/18 09:50:10;;;;;;;2.05;1.42;;;24.90;46.10;;;;;;4916901;29;20056;-48
2023/07/18 09:52:45;;;;;;;2.00;0.98;;;24.90;45.60;;;;;;4915484;29;20196;-49
2023/07/18 09:55:14;;;;;;;1.42;1.30;;;25.00;44.50;;;;;;4911144;29;20040;-48
2023/07/18 09:57:47;;;;;;;3.08;0.98;;;25.00;44.30;;;;;;4914879;29;20524;-49
2023/07/18 10:00:16;;;;;;;3.03;0.77;;;25.00;44.10;;;;;;4915855;29;20471;-48
2023/07/18 10:02:44;;;;;;;3.65;1.40;;;24.90;44.10;;;;;;4916337;29;20048;-48
2023/07/18 10:05:14;;;;;;;1.60;0.90;;;24.90;44.10;;;;;;4916212;29;20511;-48
2023/07/18 10:07:43;;;;;;;1.67;0.88;;;24.90;43.70;;;;;;4917119;29;20052;-48
2023/07/18 10:10:12;;;;;;;1.92;0.93;;;24.90;44.30;;;;;;4916861;29;20143;-47
2023/07/18 10:13:01;;;;;;;2.80;1.00;;;24.90;44.10;;;;;;4914377;29;20095;-48
2023/07/18 10:15:30;;;;;;;1.55;1.25;;;25.00;44.20;;;;;;4916179;29;20071;-48
2023/07/18 10:18:18;;;;;;;2.30;1.20;;;25.00;45.00;;;;;;4917139;29;20055;-47
2023/07/18 10:20:58;;;;;;;2.92;1.20;;;25.00;44.70;;;;;;4913726;29;20092;-48
2023/07/18 10:23:40;;;;;;;1.40;1.05;;;25.10;44.00;;;;;;4916462;29;20098;-49
2023/07/18 10:26:13;;;;;;;2.55;1.27;;;25.10;44.20;;;;;;4911751;29;20123;-48
2023/07/18 10:28:49;;;;;;;2.38;1.08;;;25.10;44.30;;;;;;4915143;29;20091;-49
2023/07/18 10:31:27;;;;;;;3.20;1.35;;;25.10;44.10;;;;;;4916046;29;20071;-46
2023/07/18 10:34:07;;;;;;;3.20;1.38;;;25.10;43.50;;;;;;4916162;29;20119;-48
2023/07/18 10:36:35;;;;;;;4.50;1.45;;;25.10;43.50;;;;;;4911810;29;20048;-49
2023/07/18 10:39:12;;;;;;;2.20;1.50;;;25.10;44.10;;;;;;4916966;29;20055;-49
2023/07/18 10:41:44;;;;;;;8.00;1.45;;;25.10;43.60;;;;;;4914426;29;20525;-49
2023/07/18 10:44:14;;;;;;;2.45;1.42;;;25.10;43.30;;;;;;4915005;29;20111;-47
2023/07/18 10:46:42;;;;;;;5.05;1.38;;;25.20;43.70;;;;;;4908496;29;20127;-49
2023/07/18 10:49:09;;;;;;;2.00;0.90;;;25.20;43.70;;;;;;4912717;29;20572;-47
2023/07/18 10:51:36;;;;;;;2.67;1.27;;;25.30;43.70;;;;;;4914738;29;20052;-49
2023/07/18 10:54:04;;;;;;;2.75;1.45;;;25.40;44.20;;;;;;4909887;29;20037;-48
2023/07/18 10:56:31;;;;;;;2.50;1.70;;;25.40;43.70;;;;;;4908629;29;20120;-46
2023/07/18 10:58:58;;;;;;;3.42;1.40;;;25.60;43.70;;;;;;4916008;29;20127;-49
2023/07/18 11:01:26;;;;;;;1.45;0.88;;;25.60;44.30;;;;;;4915191;29;20585;-46
2023/07/18 11:03:53;;;;;;;2.80;1.13;;;25.70;43.70;;;;;;4912299;29;20040;-49
2023/07/18 11:06:28;;;;;;;3.35;1.65;;;25.90;43.60;;;;;;4915254;29;20055;-49
2023/07/18 11:09:00;;;;;;;1.63;1.13;;;25.90;42.90;;;;;;4915875;29;20052;-44
2023/07/18 11:11:29;;;;;;;3.60;1.65;;;25.90;42.40;;;;;;4914647;29;20151;-47
2023/07/18 11:14:02;;;;;;;3.35;1.30;;;26.00;42.20;;;;;;4914670;29;20074;-46
2023/07/18 11:16:31;;;;;;;2.60;1.10;;;26.10;42.60;;;;;;4908292;29;20680;-48
2023/07/18 11:19:01;;;;;;;2.47;1.00;;;26.20;42.10;;;;;;4916270;29;20051;-49
2023/07/18 11:21:28;;;;;;;1.33;1.13;;;26.20;41.90;;;;;;4912180;29;20044;-48
2023/07/18 11:23:59;;;;;;;2.13;1.10;;;26.30;41.90;;;;;;4911789;29;20096;-49
2023/07/18 11:26:27;;;;;;;1.85;1.25;;;26.30;41.90;;;;;;4908239;29;20067;-46
2023/07/18 11:29:00;;;;;;;1.15;1.13;;;26.40;42.30;;;;;;4913034;29;20675;-44
2023/07/18 11:31:41;;;;;;;1.80;1.15;;;26.40;42.20;;;;;;4907368;29;20044;-47
2023/07/18 11:34:11;;;;;;;2.80;1.10;;;26.50;41.40;;;;;;4915002;29;20056;-45
2023/07/18 11:36:40;;;;;;;3.83;1.40;;;26.60;41.70;;;;;;4908025;29;20808;-46
2023/07/18 11:39:19;;;;;;;1.77;1.02;;;26.50;41.20;;;;;;4915606;29;20136;-46
2023/07/18 11:41:51;;;;;;;1.90;1.15;;;26.50;41.10;;;;;;4913020;29;20439;-46
2023/07/18 11:44:25;;;;;;;3.05;1.40;;;26.60;41.50;;;;;;4908988;29;20423;-45
2023/07/18 11:46:53;;;;;;;2.05;1.65;;;26.50;40.80;;;;;;4914887;29;20128;-47
2023/07/18 11:49:33;;;;;;;1.83;1.60;;;26.50;41.30;;;;;;4915124;29;20076;-48
2023/07/18 11:52:02;;;;;;;1.95;1.50;;;26.50;41.10;;;;;;4911559;29;20043;-48
2023/07/18 11:54:39;;;;;;;2.72;1.27;;;26.50;41.10;;;;;;4908723;29;20585;-48
2023/07/18 11:57:06;;;;;;;4.30;1.60;;;26.40;41.60;;;;;;4911728;29;20052;-48
2023/07/18 11:59:33;;;;;;;1.88;1.17;;;26.40;41.70;;;;;;4914068;29;20060;-48
2023/07/18 12:02:01;;;;;;;2.55;1.45;;;26.40;41.40;;;;;;4914143;29;20047;-49
2023/07/18 12:04:31;;;;;;;1.55;1.45;;;26.30;40.50;;;;;;4910791;29;20044;-46
2023/07/18 12:06:58;;;;;;;2.50;1.52;;;26.30;41.00;;;;;;4896955;29;20048;-47
2023/07/18 12:09:27;;;;;;;2.60;1.20;;;26.30;40.60;;;;;;4897742;29;20063;-45
2023/07/18 12:12:00;;;;;;;1.45;1.35;;;26.30;40.60;;;;;;4912682;29;20048;-49
2023/07/18 12:14:27;;;;;;;3.37;1.60;;;26.30;41.00;;;;;;4913317;29;20079;-45
2023/07/18 12:16:56;;;;;;;2.90;1.92;;;26.30;40.60;;;;;;4913893;29;20051;-48
2023/07/18 12:19:25;;;;;;;1.77;1.55;;;26.30;41.30;;;;;;4913986;29;20075;-45
2023/07/18 12:21:55;;;;;;;3.05;1.15;;;26.40;41.60;;;;;;4911714;29;20059;-47
2023/07/18 12:24:22;;;;;;;4.60;1.65;;;26.40;40.90;;;;;;4911788;29;20127;-49
2023/07/18 12:26:49;;;;;;;2.63;1.15;;;26.50;41.00;;;;;;4904262;29;20135;-48
2023/07/18 12:29:16;;;;;;;3.17;1.50;;;26.60;40.70;;;;;;4913332;29;20786;-48
2023/07/18 12:31:49;;;;;;;4.70;1.63;;;26.60;40.70;;;;;;4913591;29;20158;-49
2023/07/18 12:34:16;;;;;;;2.50;1.35;;;26.70;40.30;;;;;;4912975;29;20075;-49
2023/07/18 12:36:43;;;;;;;3.60;2.00;;;26.80;40.00;;;;;;4909453;29;20044;-45
2023/07/18 12:39:13;;;;;;;3.75;1.45;;;26.80;40.10;;;;;;4912779;29;20040;-50
2023/07/18 12:41:43;;;;;;;1.55;1.30;;;26.80;40.00;;;;;;4913424;29;20459;-49
2023/07/18 12:44:19;;;;;;;1.48;1.38;;;26.90;40.50;;;;;;4910694;29;20055;-48
2023/07/18 12:46:52;;;;;;;1.30;0.95;;;27.00;39.50;;;;;;4910125;29;20056;-48
2023/07/18 12:49:18;;;;;;;2.13;1.67;;;27.10;39.60;;;;;;4912689;29;20653;-48
2023/07/18 12:52:06;;;;;;;3.17;1.70;;;27.10;39.10;;;;;;4906977;29;20537;-49
2023/07/18 12:54:36;;;;;;;2.75;1.50;;;27.20;39.20;;;;;;4910341;29;20763;-48
2023/07/18 12:57:13;;;;;;;2.97;1.90;;;27.30;39.60;;;;;;4912666;29;20578;-49
2023/07/18 12:59:40;;;;;;;2.85;1.40;;;27.40;39.20;;;;;;4912774;29;20044;-46
2023/07/18 13:02:07;;;;;;;2.50;1.25;;;27.50;38.70;;;;;;4912270;29;20131;-47